Time;durP1;ratioP1;P1;durP2;ratioP2;P2;SDS_P1;SDS_P2;PMS_P1;PMS_P2;Temp;Humidity;BMP_temperature;BMP_pressure;BME280_temperature;BME280_humidity;BME280_pressure;Samples;Min_cycle;Max_cycle;Signal;HPM_P1;HPM_P2
2022/05/06 00:01:44;;;;;;;35.03;24.50;;;;;;;8.82;77.97;101229.53;1632922;86;21048;-70
2022/05/06 00:04:10;;;;;;;38.90;25.30;;;;;;;8.78;78.01;101227.27;1660088;86;21756;-70
2022/05/06 00:06:36;;;;;;;35.17;23.92;;;;;;;8.78;78.05;101220.63;1653998;86;21021;-70
2022/05/06 00:09:03;;;;;;;32.20;22.77;;;;;;;8.78;78.10;101227.27;1633653;87;21057;-70
2022/05/06 00:11:30;;;;;;;40.23;24.15;;;;;;;8.75;78.13;101223.56;1653251;86;21050;-70
2022/05/06 00:13:56;;;;;;;43.17;24.52;;;;;;;8.69;78.14;101226.78;1656104;84;21498;-70
2022/05/06 00:16:22;;;;;;;39.05;24.60;;;;;;;8.69;78.19;101225.45;1656261;86;21132;-70
2022/05/06 00:18:49;;;;;;;33.67;24.05;;;;;;;8.64;78.22;101225.02;1656456;86;21032;-70
2022/05/06 00:21:15;;;;;;;44.80;28.47;;;;;;;8.58;78.25;101222.91;1657121;86;21554;-70
2022/05/06 00:23:41;;;;;;;47.50;29.02;;;;;;;8.51;78.31;101223.44;1649085;86;21030;-70
2022/05/06 00:26:07;;;;;;;45.15;26.57;;;;;;;8.48;78.33;101223.71;1633406;87;21049;-70
2022/05/06 00:28:34;;;;;;;40.55;26.37;;;;;;;8.45;78.38;101223.98;1629656;86;21613;-70
2022/05/06 00:31:01;;;;;;;40.75;26.75;;;;;;;8.46;78.42;101222.17;1636332;86;21038;-70
2022/05/06 00:33:28;;;;;;;39.78;26.48;;;;;;;8.43;78.45;101228.61;1650015;85;21053;-70
2022/05/06 00:35:54;;;;;;;45.90;27.75;;;;;;;8.42;78.46;101220.76;1657124;86;21537;-70
2022/05/06 00:38:21;;;;;;;44.42;27.10;;;;;;;8.38;78.47;101228.16;1655713;86;21021;-70
2022/05/06 00:40:46;;;;;;;45.52;26.95;;;;;;;8.33;78.53;101227.75;1636678;86;21339;-70
2022/05/06 00:43:12;;;;;;;40.98;26.07;;;;;;;8.29;78.56;101232.98;1643103;86;20949;-70
2022/05/06 00:45:53;;;;;;;35.15;24.43;;;;;;;8.24;78.60;101227.17;1658021;86;21080;-70
2022/05/06 00:48:23;;;;;;;35.33;24.77;;;;;;;8.20;78.67;101230.26;1659245;86;21028;-70
2022/05/06 00:50:50;;;;;;;35.55;23.27;;;;;;;8.14;78.68;101228.96;1631777;86;21030;-70
2022/05/06 00:53:16;;;;;;;34.50;23.35;;;;;;;8.07;78.69;101226.48;1642580;86;21486;-70
2022/05/06 00:55:42;;;;;;;31.80;22.50;;;;;;;8.02;78.72;101228.20;1605432;86;21077;-70
2022/05/06 00:58:08;;;;;;;30.62;22.58;;;;;;;8.02;78.79;101234.03;1626229;86;21484;-70
2022/05/06 01:00:34;;;;;;;37.28;24.50;;;;;;;7.98;78.84;101240.09;1625040;88;21037;-70
2022/05/06 01:03:00;;;;;;;49.25;27.10;;;;;;;7.99;78.88;101240.91;1639679;86;21143;-70
2022/05/06 01:05:27;;;;;;;36.38;22.87;;;;;;;7.95;78.92;101242.17;1643182;86;21105;-70
2022/05/06 01:07:53;;;;;;;34.08;21.87;;;;;;;7.93;78.96;101249.41;1624946;88;20990;-70
2022/05/06 01:10:20;;;;;;;28.92;21.73;;;;;;;7.92;78.97;101249.05;1625126;88;21018;-69
2022/05/06 01:12:46;;;;;;;33.30;22.30;;;;;;;7.89;79.04;101250.16;1632121;86;21069;-69
2022/05/06 01:15:21;;;;;;;38.48;23.60;;;;;;;7.88;79.06;101255.62;1625972;86;21034;-70
2022/05/06 01:17:50;;;;;;;33.45;23.75;;;;;;;7.90;79.09;101260.30;1625185;88;21091;-70
2022/05/06 01:20:17;;;;;;;35.88;23.50;;;;;;;7.89;79.11;101259.45;1624785;88;21026;-70
2022/05/06 01:22:51;;;;;;;35.08;23.30;;;;;;;7.90;79.14;101261.63;1636532;86;21081;-70
2022/05/06 01:25:17;;;;;;;38.40;23.30;;;;;;;7.87;79.15;101267.21;1625273;86;21129;-70
2022/05/06 01:28:01;;;;;;;29.30;20.35;;;;;;;7.87;79.20;101268.54;1625226;88;21060;-70
2022/05/06 01:30:48;;;;;;;33.20;21.15;;;;;;;7.83;79.22;101268.44;1647123;86;21567;-70
2022/05/06 01:33:21;;;;;;;29.37;21.75;;;;;;;7.79;79.25;101267.02;1651695;86;21082;-70
2022/05/06 01:35:57;;;;;;;32.10;21.05;;;;;;;7.72;79.26;101268.51;1651957;86;21030;-70
2022/05/06 01:38:49;;;;;;;29.80;21.52;;;;;;;7.68;79.30;101273.72;1660102;85;21024;-69
2022/05/06 01:41:24;;;;;;;32.93;22.50;;;;;;;7.66;79.35;101275.67;1625289;88;21106;-70
2022/05/06 01:44:01;;;;;;;27.22;20.85;;;;;;;7.69;79.36;101268.77;1652507;86;21186;-70
2022/05/06 01:46:28;;;;;;;28.83;20.35;;;;;;;7.70;79.38;101271.31;1651136;85;21022;-70
2022/05/06 01:48:55;;;;;;;28.32;22.22;;;;;;;7.66;79.39;101277.00;1651619;86;21574;-69
2022/05/06 01:51:21;;;;;;;30.92;20.72;;;;;;;7.63;79.42;101279.92;1639938;86;21114;-70
2022/05/06 01:53:47;;;;;;;31.82;21.17;;;;;;;7.62;79.45;101278.23;1625483;86;21078;-70
2022/05/06 01:56:13;;;;;;;29.48;20.32;;;;;;;7.58;79.49;101281.63;1627490;86;21198;-69
2022/05/06 01:58:39;;;;;;;32.85;22.13;;;;;;;7.56;79.49;101289.37;1596389;87;21015;-70
2022/05/06 02:01:05;;;;;;;33.45;22.35;;;;;;;7.56;79.53;101284.06;1635464;86;20954;-70
2022/05/06 02:06:16;;;;;;;33.30;22.42;;;;;;;7.52;79.57;101285.65;1651232;86;21078;-70
2022/05/06 02:08:42;;;;;;;31.60;22.35;;;;;;;7.52;79.61;101295.42;1651973;85;21157;-71
2022/05/06 02:11:08;;;;;;;32.95;22.13;;;;;;;7.54;79.60;101291.66;1640385;86;21078;-70
2022/05/06 02:13:34;;;;;;;32.95;22.25;;;;;;;7.53;79.62;101288.63;1623727;87;21511;-70
2022/05/06 02:16:02;;;;;;;36.33;22.55;;;;;;;7.48;79.65;101284.22;1644781;86;21018;-70
2022/05/06 02:18:28;;;;;;;28.42;21.30;;;;;;;7.50;79.71;101291.55;1651697;86;21502;-69
2022/05/06 02:20:58;;;;;;;32.58;23.80;;;;;;;7.51;79.71;101298.55;1642894;86;21283;-70
2022/05/06 02:23:25;;;;;;;28.80;18.90;;;;;;;7.54;79.74;101296.97;1625328;88;21536;-70
2022/05/06 02:25:51;;;;;;;37.05;24.55;;;;;;;7.58;79.75;101291.39;1643082;85;21022;-70
2022/05/06 02:28:17;;;;;;;33.28;22.95;;;;;;;7.58;79.78;101290.06;1627440;86;21395;-70
2022/05/06 02:33:31;;;;;;;41.33;27.65;;;;;;;7.60;79.83;101293.45;1636771;86;21584;-70
2022/05/06 02:36:02;;;;;;;41.33;27.15;;;;;;;7.65;79.85;101291.23;1636673;86;21038;-70
2022/05/06 02:38:28;;;;;;;40.40;26.97;;;;;;;7.69;79.89;101295.32;1625784;85;21578;-70
2022/05/06 02:40:55;;;;;;;39.38;26.90;;;;;;;7.71;79.91;101298.67;1625141;86;21515;-70
2022/05/06 02:43:21;;;;;;;41.45;26.93;;;;;;;7.69;79.94;101292.19;1642165;86;21014;-70
2022/05/06 02:45:47;;;;;;;40.52;29.35;;;;;;;7.67;79.95;101297.28;1651255;85;21168;-70
2022/05/06 02:48:14;;;;;;;40.98;26.60;;;;;;;7.62;80.00;101295.48;1628893;86;21032;-70
2022/05/06 02:50:41;;;;;;;39.65;27.07;;;;;;;7.56;80.03;101299.98;1631474;86;21272;-69
2022/05/06 02:53:07;;;;;;;60.98;38.55;;;;;;;7.53;80.06;101293.95;1651458;85;21086;-70
2022/05/06 02:55:34;;;;;;;40.28;28.77;;;;;;;7.52;80.09;101302.91;1651502;86;21054;-69
2022/05/06 02:58:03;;;;;;;40.25;27.82;;;;;;;7.50;80.10;101299.52;1630564;86;21491;-69
2022/05/06 03:00:29;;;;;;;38.70;27.73;;;;;;;7.46;80.14;101308.70;1627869;86;21066;-70
2022/05/06 03:02:56;;;;;;;43.85;27.65;;;;;;;7.42;80.16;101311.24;1651690;86;21038;-69
2022/05/06 03:05:24;;;;;;;37.83;26.23;;;;;;;7.41;80.21;101309.58;1651916;86;21082;-70
2022/05/06 03:07:51;;;;;;;37.80;25.95;;;;;;;7.36;80.23;101305.13;1634698;85;21563;-69
2022/05/06 03:10:17;;;;;;;40.60;27.25;;;;;;;7.35;80.27;101303.95;1626499;86;21165;-70
2022/05/06 03:12:44;;;;;;;39.98;28.17;;;;;;;7.33;80.26;101309.84;1639993;86;21583;-69
2022/05/06 03:15:10;;;;;;;63.80;27.60;;;;;;;7.34;80.30;101305.75;1638352;87;21077;-70
2022/05/06 03:17:36;;;;;;;44.98;26.90;;;;;;;7.32;80.31;101307.67;1637423;86;21109;-70
2022/05/06 03:20:08;;;;;;;40.43;27.42;;;;;;;7.32;80.33;101311.65;1623742;88;20919;-70
2022/05/06 03:22:37;;;;;;;38.58;26.52;;;;;;;7.29;80.37;101305.75;1649589;85;21150;-69
2022/05/06 03:25:04;;;;;;;43.65;29.10;;;;;;;7.27;80.41;101305.90;1646032;86;21048;-69
2022/05/06 03:30:14;;;;;;;43.95;27.73;;;;;;;7.25;80.43;101312.27;1625040;87;21077;-70
2022/05/06 03:32:40;;;;;;;36.00;26.05;;;;;;;7.28;80.48;101318.17;1638118;86;20927;-70
2022/05/06 03:35:07;;;;;;;40.25;27.50;;;;;;;7.30;80.47;101318.91;1624794;88;21091;-69
2022/05/06 03:37:36;;;;;;;39.85;27.10;;;;;;;7.26;80.47;101328.08;1649508;86;21526;-69
2022/05/06 03:40:01;;;;;;;40.35;26.90;;;;;;;7.27;80.53;101326.28;1651836;85;21021;-69
2022/05/06 03:42:27;;;;;;;44.03;27.25;;;;;;;7.30;80.58;101321.56;1641530;86;21044;-69
2022/05/06 03:44:53;;;;;;;38.65;27.60;;;;;;;7.34;80.61;101324.33;1638229;87;20937;-70
2022/05/06 03:47:20;;;;;;;38.02;27.60;;;;;;;7.34;80.56;101330.95;1654213;86;21495;-70
2022/05/06 03:51:20;;;;;;;42.05;28.77;;;;;;;7.34;80.61;101332.28;1632046;86;21045;-69
2022/05/06 03:52:14;;;;;;;43.28;27.77;;;;;;;7.44;80.68;101342.50;1653815;86;21033;-70
2022/05/06 03:54:40;;;;;;;39.33;27.58;;;;;;;7.47;80.68;101342.23;1658649;86;21085;-69
2022/05/06 03:57:06;;;;;;;41.20;28.55;;;;;;;7.49;80.71;101341.61;1641527;86;20926;-69
2022/05/06 03:59:32;;;;;;;40.10;28.75;;;;;;;7.72;80.78;101342.84;1634416;86;21171;-69
2022/05/06 04:01:58;;;;;;;51.68;28.65;;;;;;;7.99;80.87;101344.50;1657669;86;21045;-70
2022/05/06 04:04:26;;;;;;;38.25;28.67;;;;;;;8.37;80.91;101351.39;1658651;86;21038;-70
2022/05/06 04:06:52;;;;;;;34.80;27.05;;;;;;;8.69;80.87;101349.10;1643423;86;21066;-70
2022/05/06 04:09:18;;;;;;;37.45;27.13;;;;;;;8.91;80.84;101347.06;1636084;86;21049;-70
2022/05/06 04:11:44;;;;;;;34.80;25.08;;;;;;;9.16;80.88;101344.38;1658649;86;21380;-70
2022/05/06 04:14:10;;;;;;;44.08;27.48;;;;;;;9.31;80.84;101348.34;1655251;86;21057;-70
2022/05/06 04:16:36;;;;;;;40.83;25.12;;;;;;;9.37;80.75;101358.42;1658613;86;21518;-70
2022/05/06 04:19:03;;;;;;;41.90;25.45;;;;;;;9.50;80.65;101353.66;1658206;86;21066;-70
2022/05/06 04:24:13;;;;;;;34.08;22.95;;;;;;;9.69;80.52;101371.47;1654122;85;21939;-70
2022/05/06 04:26:39;;;;;;;37.35;23.18;;;;;;;9.99;80.50;101372.63;1631229;88;20910;-70
2022/05/06 04:29:05;;;;;;;29.67;21.48;;;;;;;10.46;80.48;101379.37;1632305;86;20930;-70
2022/05/06 04:31:32;;;;;;;38.38;20.85;;;;;;;10.99;80.45;101375.08;1658192;86;21014;-70
2022/05/06 04:33:58;;;;;;;24.05;17.82;;;;;;;11.36;80.19;101371.01;1657935;86;21045;-70
2022/05/06 04:36:24;;;;;;;26.60;18.70;;;;;;;11.43;79.86;101384.06;1631805;86;21162;-70
2022/05/06 04:38:49;;;;;;;29.48;18.40;;;;;;;11.28;79.56;101380.26;1631790;86;20930;-70
2022/05/06 04:41:15;;;;;;;26.20;17.07;;;;;;;11.28;79.34;101385.59;1652552;86;20946;-70
2022/05/06 04:43:41;;;;;;;21.25;17.40;;;;;;;11.33;79.08;101389.16;1657623;86;21125;-70
2022/05/06 04:46:08;;;;;;;25.27;17.40;;;;;;;11.20;78.86;101379.31;1657392;85;21554;-70
2022/05/06 04:48:34;;;;;;;28.62;18.05;;;;;;;11.12;78.62;101382.73;1658354;86;21558;-70
2022/05/06 04:51:00;;;;;;;25.02;17.42;;;;;;;11.21;78.34;101380.52;1639215;86;21530;-70
2022/05/06 04:53:26;;;;;;;25.05;17.57;;;;;;;11.35;78.19;101384.00;1631924;86;21021;-70
2022/05/06 04:55:52;;;;;;;22.87;17.27;;;;;;;11.44;78.06;101377.74;1631841;88;21075;-70
2022/05/06 04:58:19;;;;;;;28.57;17.85;;;;;;;11.49;78.02;101380.81;1631434;86;21494;-70
2022/05/06 05:00:45;;;;;;;22.10;16.95;;;;;;;11.41;77.98;101386.06;1652281;86;21148;-70
2022/05/06 05:03:11;;;;;;;21.50;15.48;;;;;;;11.20;77.97;101390.84;1654731;86;21053;-71
2022/05/06 05:05:37;;;;;;;25.32;16.62;;;;;;;11.12;77.89;101388.59;1632760;86;21530;-70
2022/05/06 05:08:04;;;;;;;22.02;15.80;;;;;;;10.95;77.78;101393.71;1631618;88;21027;-70
2022/05/06 05:10:30;;;;;;;25.02;15.20;;;;;;;10.91;77.67;101399.48;1634133;85;21073;-70
2022/05/06 05:12:56;;;;;;;18.20;14.73;;;;;;;10.87;77.55;101402.13;1631799;88;21235;-70
2022/05/06 05:15:24;;;;;;;21.07;15.48;;;;;;;10.75;77.47;101397.95;1656871;86;21042;-70
2022/05/06 05:17:50;;;;;;;25.62;15.68;;;;;;;10.68;77.40;101403.52;1658289;86;21034;-70
2022/05/06 05:20:16;;;;;;;24.63;15.43;;;;;;;10.70;77.26;101394.86;1644364;86;21423;-70
2022/05/06 05:22:42;;;;;;;28.55;15.43;;;;;;;10.82;77.15;101401.71;1630297;88;21113;-70
2022/05/06 05:25:09;;;;;;;21.77;14.55;;;;;;;10.96;77.05;101398.56;1647977;85;21570;-70
2022/05/06 05:27:36;;;;;;;21.45;15.75;;;;;;;11.01;76.96;101397.11;1656899;86;21034;-70
2022/05/06 05:30:04;;;;;;;18.42;14.40;;;;;;;11.11;76.98;101399.75;1655525;86;21021;-70
2022/05/06 05:32:30;;;;;;;24.45;14.63;;;;;;;11.26;76.92;101400.91;1654080;86;21052;-70
2022/05/06 05:34:56;;;;;;;20.62;15.32;;;;;;;11.37;76.82;101398.03;1653948;86;21001;-71
2022/05/06 05:37:22;;;;;;;27.98;16.37;;;;;;;11.40;76.77;101403.07;1652474;86;22047;-70
2022/05/06 05:39:48;;;;;;;27.35;17.60;;;;;;;11.42;76.74;101402.94;1631618;88;20965;-71
2022/05/06 05:42:23;;;;;;;22.30;15.13;;;;;;;11.52;76.63;101409.89;1631704;86;21038;-70
2022/05/06 05:50:19;;;;;;;21.17;13.50;;;;;;;11.61;76.23;101405.98;1651566;86;21034;-70
2022/05/06 05:52:45;;;;;;;17.85;12.68;;;;;;;11.75;76.11;101406.81;1630560;86;21573;-70
2022/05/06 05:55:12;;;;;;;20.00;12.75;;;;;;;11.80;76.01;101408.02;1624440;88;21001;-70
2022/05/06 05:57:38;;;;;;;17.95;13.40;;;;;;;11.88;75.86;101409.44;1624958;88;21109;-70
2022/05/06 06:00:06;;;;;;;20.45;13.13;;;;;;;12.14;75.70;101405.46;1648521;86;21030;-71
2022/05/06 06:02:32;;;;;;;20.52;12.40;;;;;;;12.41;75.52;101408.52;1651022;86;21853;-70
2022/05/06 06:04:58;;;;;;;21.97;11.65;;;;;;;12.59;75.27;101416.48;1631762;86;21156;-70
2022/05/06 06:07:24;;;;;;;19.32;11.88;;;;;;;12.72;75.03;101415.55;1625236;88;21049;-70
2022/05/06 06:09:50;;;;;;;18.95;12.45;;;;;;;12.83;74.80;101417.96;1625957;86;21061;-70
2022/05/06 06:12:16;;;;;;;19.95;11.83;;;;;;;13.35;74.36;101424.06;1625157;87;21137;-71
2022/05/06 06:14:42;;;;;;;18.32;11.35;;;;;;;13.35;74.36;101424.06;1624909;88;21142;-71
2022/05/06 06:17:08;;;;;;;16.65;11.33;;;;;;;13.77;74.03;101423.99;1624896;88;21017;-71
2022/05/06 06:19:34;;;;;;;18.25;11.08;;;;;;;13.77;74.03;101423.99;1632344;86;21123;-71
2022/05/06 06:22:00;;;;;;;19.57;10.45;;;;;;;14.04;73.45;101415.63;1646074;86;21073;-71
2022/05/06 06:24:28;;;;;;;16.12;10.43;;;;;;;14.25;73.00;101422.66;1642503;86;21264;-71
2022/05/06 06:26:54;;;;;;;16.62;10.72;;;;;;;14.44;72.79;101431.75;1645101;86;21809;-71
2022/05/06 06:29:20;;;;;;;13.48;10.78;;;;;;;14.46;72.40;101428.38;1644183;86;21024;-71
2022/05/06 06:31:46;;;;;;;12.50;8.98;;;;;;;14.49;72.02;101424.01;1651400;86;21053;-71
2022/05/06 06:34:12;;;;;;;15.23;8.93;;;;;;;14.49;71.64;101424.01;1644794;86;20998;-71
2022/05/06 06:36:38;;;;;;;11.35;8.40;;;;;;;14.53;71.31;101429.87;1638612;86;21026;-71
2022/05/06 06:39:04;;;;;;;15.88;8.70;;;;;;;14.41;70.82;101415.98;1644116;86;21126;-71
2022/05/06 06:41:30;;;;;;;16.25;9.73;;;;;;;14.35;70.43;101428.75;1634086;87;21072;-71
2022/05/06 06:43:57;;;;;;;13.90;9.18;;;;;;;14.46;70.15;101425.70;1612672;87;21092;-71
2022/05/06 06:46:23;;;;;;;13.78;8.93;;;;;;;14.69;69.86;101430.36;1626172;86;21081;-71
2022/05/06 06:48:49;;;;;;;14.90;8.73;;;;;;;14.76;69.51;101430.01;1623220;86;21088;-71
2022/05/06 06:51:18;;;;;;;19.40;11.00;;;;;;;14.88;69.17;101427.30;1632149;87;21155;-71
2022/05/06 06:53:44;;;;;;;15.50;10.40;;;;;;;14.92;68.82;101433.98;1620688;87;21019;-71
2022/05/06 06:56:10;;;;;;;14.58;8.30;;;;;;;15.03;68.52;101433.61;1612471;87;21033;-71
2022/05/06 06:58:36;;;;;;;13.55;8.15;;;;;;;15.13;68.19;101435.58;1609780;88;21041;-71
2022/05/06 07:01:03;;;;;;;12.43;7.30;;;;;;;15.39;67.93;101437.49;1611745;88;21666;-71
2022/05/06 07:03:29;;;;;;;10.93;6.87;;;;;;;15.60;67.56;101434.72;1588822;89;21341;-71
2022/05/06 07:14:08;;;;;;;9.98;6.00;;;;;;;16.44;65.70;101438.61;1606148;88;21114;-71
2022/05/06 07:16:37;;;;;;;9.60;4.53;;;;;;;16.49;65.06;101438.41;1605036;88;21160;-71
2022/05/06 07:19:02;;;;;;;10.08;4.35;;;;;;;16.43;64.49;101438.30;1603394;87;21587;-71
2022/05/06 07:21:29;;;;;;;6.85;3.58;;;;;;;16.58;64.10;101435.64;1606028;87;21471;-71
2022/05/06 07:23:55;;;;;;;8.88;3.98;;;;;;;16.67;63.52;101439.44;1621835;87;21060;-71
2022/05/06 07:26:21;;;;;;;9.98;3.55;;;;;;;16.74;62.98;101441.73;1608677;87;21671;-71
2022/05/06 07:28:47;;;;;;;9.98;4.05;;;;;;;16.90;62.51;101443.39;1615112;87;21842;-72
2022/05/06 07:31:12;;;;;;;8.95;4.22;;;;;;;16.94;61.65;101439.30;1605567;87;21022;-72
2022/05/06 07:33:38;;;;;;;9.95;4.03;;;;;;;16.82;61.04;101444.81;1588915;88;21051;-72
2022/05/06 07:36:05;;;;;;;6.17;3.85;;;;;;;17.04;60.66;101443.90;1603355;88;21417;-71
2022/05/06 07:38:32;;;;;;;11.78;3.90;;;;;;;17.12;60.13;101439.77;1583574;88;21050;-72
2022/05/06 07:41:01;;;;;;;9.60;4.75;;;;;;;16.80;59.12;101436.09;1588037;88;21175;-72
2022/05/06 07:43:26;;;;;;;8.65;4.55;;;;;;;16.73;58.63;101439.20;1589761;88;21085;-72
2022/05/06 07:45:52;;;;;;;19.45;6.72;;;;;;;16.89;58.15;101444.40;1590626;88;21048;-71
2022/05/06 07:48:19;;;;;;;11.73;4.40;;;;;;;16.93;57.52;101445.70;1619481;86;21062;-71
2022/05/06 07:50:45;;;;;;;9.73;5.15;;;;;;;17.08;57.21;101443.02;1632090;86;21102;-71
2022/05/06 07:53:12;;;;;;;6.12;3.72;;;;;;;17.21;56.72;101441.33;1658682;84;21118;-71
2022/05/06 07:55:38;;;;;;;9.53;3.40;;;;;;;17.47;56.48;101433.58;1662548;84;21550;-72
2022/05/06 07:58:05;;;;;;;9.35;3.77;;;;;;;17.66;55.97;101447.52;1634110;86;21499;-71
2022/05/06 08:00:32;;;;;;;10.70;4.28;;;;;;;17.68;55.53;101449.00;1652541;84;21636;-72
2022/05/06 08:05:44;;;;;;;11.15;4.15;;;;;;;17.86;54.77;101444.02;1649760;85;21916;-72
2022/05/06 08:08:12;;;;;;;8.73;3.87;;;;;;;17.91;54.39;101452.86;1659587;85;21020;-72
2022/05/06 08:10:38;;;;;;;9.00;3.75;;;;;;;18.00;53.95;101453.08;1642897;85;21100;-72
2022/05/06 08:13:06;;;;;;;9.00;3.72;;;;;;;17.96;53.60;101454.48;1615495;85;38757;-72
2022/05/06 08:15:32;;;;;;;10.40;5.00;;;;;;;17.83;53.14;101450.30;1630543;86;21107;-72
2022/05/06 08:17:58;;;;;;;7.80;3.35;;;;;;;17.82;52.81;101448.12;1655777;84;21175;-72
2022/05/06 08:20:24;;;;;;;6.65;3.40;;;;;;;17.85;52.51;101444.19;1634052;86;21148;-72
2022/05/06 08:22:50;;;;;;;7.83;3.12;;;;;;;17.72;52.16;101440.01;1657001;84;21025;-72
2022/05/06 08:25:16;;;;;;;11.03;3.60;;;;;;;17.48;51.78;101443.36;1626001;86;21035;-72
2022/05/06 08:27:43;;;;;;;9.00;3.02;;;;;;;17.33;51.63;101431.75;1634820;85;21519;-72
2022/05/06 08:30:13;;;;;;;10.25;3.40;;;;;;;17.34;51.39;101434.78;1645470;85;21163;-72
2022/05/06 08:32:41;;;;;;;8.08;2.85;;;;;;;17.27;51.11;101440.60;1633710;85;21039;-72
2022/05/06 08:35:09;;;;;;;8.45;3.35;;;;;;;17.19;50.78;101435.30;1631799;85;21093;-73
2022/05/06 08:37:46;;;;;;;5.95;3.00;;;;;;;17.16;50.58;101444.27;1634396;85;21035;-72
2022/05/06 08:40:22;;;;;;;7.05;3.22;;;;;;;17.10;50.32;101440.98;1633860;85;21113;-72
2022/05/06 08:42:49;;;;;;;7.03;3.52;;;;;;;17.23;50.08;101443.85;1631311;85;21735;-72
2022/05/06 08:50:52;;;;;;;6.97;3.90;;;;;;;17.92;49.68;101440.53;1650940;84;21770;-72
2022/05/06 08:53:29;;;;;;;6.08;3.08;;;;;;;17.90;49.63;101439.06;1650905;84;21009;-72
2022/05/06 08:55:56;;;;;;;8.20;3.52;;;;;;;17.87;49.62;101439.45;1649210;84;21761;-72
2022/05/06 08:58:24;;;;;;;6.97;3.12;;;;;;;17.87;49.53;101440.80;1650595;85;21724;-72
2022/05/06 09:00:51;;;;;;;7.05;3.05;;;;;;;17.96;49.40;101440.98;1650405;85;21528;-72
2022/05/06 09:03:17;;;;;;;7.55;3.52;;;;;;;17.85;49.08;101445.53;1651228;85;21143;-72
2022/05/06 09:05:56;;;;;;;7.22;2.60;;;;;;;17.83;49.02;101440.86;1650783;85;22314;-72
2022/05/06 09:08:22;;;;;;;;;;;;;;;17.89;48.93;101437.38;1653666;85;21657;-72
2022/05/06 09:11:09;;;;;;;7.58;2.85;;;;;;;17.97;48.95;101435.92;1650327;85;20241;-72
2022/05/06 09:13:41;;;;;;;7.22;2.85;;;;;;;17.96;48.81;101435.59;1650029;85;21144;-72
2022/05/06 09:16:39;;;;;;;8.98;2.60;;;;;;;17.89;48.66;101436.03;1650464;85;21532;-72
2022/05/06 09:19:21;;;;;;;7.78;3.60;;;;;;;17.93;48.67;101437.33;1652018;85;20968;-72
2022/05/06 09:22:13;;;;;;;6.08;3.08;;;;;;;17.95;48.60;101434.75;1649187;85;21713;-71
2022/05/06 09:24:38;;;;;;;8.90;3.20;;;;;;;17.90;48.45;101429.11;1651423;85;21727;-71
2022/05/06 09:27:16;;;;;;;4.85;2.60;;;;;;;18.07;48.28;101432.89;1649308;85;21540;-71
2022/05/06 09:29:48;;;;;;;8.05;3.17;;;;;;;17.94;47.99;101439.00;1650428;85;21037;-71
2022/05/06 09:32:30;;;;;;;8.40;2.90;;;;;;;17.79;47.88;101439.56;1650076;85;20986;-71
2022/05/06 09:35:13;;;;;;;8.38;3.10;;;;;;;17.73;47.63;101438.45;1650568;85;21731;-71
2022/05/06 09:37:43;;;;;;;9.20;3.77;;;;;;;17.58;47.49;101436.84;1649772;85;21082;-71
2022/05/06 09:40:15;;;;;;;5.25;3.42;;;;;;;17.63;47.55;101435.73;1650986;85;21073;-71
2022/05/06 09:42:45;;;;;;;6.97;3.83;;;;;;;17.76;47.57;101434.56;1651588;84;21043;-71
2022/05/06 09:45:14;;;;;;;7.37;3.67;;;;;;;17.77;47.55;101437.05;1649931;85;21006;-72
2022/05/06 09:47:40;;;;;;;6.55;3.25;;;;;;;17.89;47.63;101429.29;1650287;84;21165;-72
2022/05/06 09:50:08;;;;;;;6.60;3.55;;;;;;;18.07;47.59;101428.33;1640201;86;21047;-72
2022/05/06 09:52:35;;;;;;;7.37;3.08;;;;;;;17.96;47.35;101438.29;1619911;87;21072;-72
2022/05/06 09:55:01;;;;;;;8.00;3.15;;;;;;;17.93;47.28;101428.72;1615283;87;21062;-72
2022/05/06 09:57:29;;;;;;;6.92;3.27;;;;;;;17.96;47.33;101428.84;1620293;86;21103;-72
2022/05/06 09:59:55;;;;;;;7.40;3.83;;;;;;;17.81;47.23;101424.00;1602570;88;21165;-71
2022/05/06 10:02:21;;;;;;;6.58;4.00;;;;;;;17.83;47.33;101432.77;1611438;89;21511;-72
2022/05/06 10:04:48;;;;;;;4.55;2.62;;;;;;;17.92;47.37;101434.30;1615511;87;21601;-72
2022/05/06 10:07:16;;;;;;;5.75;2.70;;;;;;;17.80;47.20;101427.22;1626725;87;21157;-72
2022/05/06 10:09:59;;;;;;;3.83;2.47;;;;;;;17.78;47.01;101417.65;1612549;87;21103;-72
2022/05/06 10:12:27;;;;;;;9.75;2.55;;;;;;;17.86;46.95;101422.42;1612775;87;21177;-72
2022/05/06 10:14:53;;;;;;;11.53;3.95;;;;;;;17.82;46.81;101422.48;1624917;88;21050;-72
2022/05/06 10:17:53;;;;;;;6.80;2.80;;;;;;;17.87;46.85;101419.21;1625065;87;20946;-72
2022/05/06 10:20:45;;;;;;;10.65;2.85;;;;;;;17.89;46.69;101414.45;1647935;86;21187;-72
2022/05/06 10:23:12;;;;;;;8.03;3.35;;;;;;;17.94;46.69;101413.36;1651990;86;21526;-72
2022/05/06 10:25:48;;;;;;;7.58;3.10;;;;;;;18.14;46.71;101414.38;1632659;86;21149;-72
2022/05/06 10:34:27;;;;;;;5.00;2.98;;;;;;;18.18;46.42;101410.27;1646412;86;21094;-72
2022/05/06 10:36:56;;;;;;;4.87;2.47;;;;;;;18.23;46.40;101413.19;1642298;86;22219;-72
2022/05/06 10:39:35;;;;;;;6.22;3.47;;;;;;;18.25;46.28;101411.66;1629616;86;21809;-72
2022/05/06 10:42:12;;;;;;;6.22;2.70;;;;;;;18.34;46.10;101404.56;1639420;86;21098;-72
2022/05/06 10:44:45;;;;;;;4.78;2.87;;;;;;;18.34;46.10;101404.56;1632990;86;21081;-72
2022/05/06 10:47:20;;;;;;;4.60;2.70;;;;;;;18.30;45.94;101407.33;1625344;87;21204;-72
2022/05/06 10:49:50;;;;;;;5.83;2.67;;;;;;;18.30;45.91;101408.68;1651329;86;21572;-72
2022/05/06 10:52:25;;;;;;;7.83;2.70;;;;;;;18.32;45.96;101405.80;1659181;86;21193;-72
2022/05/06 10:54:54;;;;;;;4.55;2.62;;;;;;;18.36;45.93;101401.68;1654396;86;21129;-72
2022/05/06 10:57:22;;;;;;;5.95;2.98;;;;;;;18.40;45.90;101397.02;1636402;86;21538;-72
2022/05/06 10:59:51;;;;;;;6.40;3.00;;;;;;;18.48;45.90;101387.42;1625167;88;21073;-72
2022/05/06 11:02:22;;;;;;;9.23;2.73;;;;;;;18.57;45.92;101390.02;1625387;88;21101;-72
2022/05/06 11:04:59;;;;;;;7.12;2.00;;;;;;;18.62;45.88;101392.94;1625500;86;21574;-72
2022/05/06 11:07:25;;;;;;;4.55;2.00;;;;;;;18.57;45.78;101386.80;1623785;88;21583;-72
2022/05/06 11:09:51;;;;;;;9.55;2.08;;;;;;;18.70;45.67;101379.28;1623846;88;21078;-72
2022/05/06 11:12:48;;;;;;;6.20;2.05;;;;;;;18.82;45.49;101381.21;1627159;86;21174;-72
2022/05/06 11:15:17;;;;;;;3.72;1.95;;;;;;;18.84;45.30;101379.67;1631177;86;21105;-72
2022/05/06 11:17:44;;;;;;;5.35;2.50;;;;;;;18.77;44.98;101380.99;1625195;88;21146;-72
2022/05/06 11:20:26;;;;;;;3.55;1.60;;;;;;;18.74;44.82;101375.98;1625765;86;21054;-72
2022/05/06 11:23:04;;;;;;;4.87;1.90;;;;;;;18.71;44.77;101379.09;1629742;86;21045;-71
2022/05/06 11:25:33;;;;;;;7.95;2.30;;;;;;;18.66;44.59;101372.59;1659093;86;21561;-71
2022/05/06 11:28:02;;;;;;;4.62;1.62;;;;;;;18.68;44.42;101371.91;1650008;86;21077;-72
2022/05/06 11:30:30;;;;;;;8.15;2.37;;;;;;;18.71;44.35;101366.09;1635851;86;21493;-72
2022/05/06 11:33:01;;;;;;;5.75;1.75;;;;;;;18.74;44.21;101364.34;1650053;86;21014;-72
2022/05/06 11:35:43;;;;;;;5.22;2.15;;;;;;;18.75;44.05;101361.97;1625930;86;21058;-71
2022/05/06 11:38:09;;;;;;;4.10;2.12;;;;;;;18.87;43.96;101357.64;1632713;86;21030;-72
2022/05/06 11:40:36;;;;;;;4.03;2.15;;;;;;;18.85;43.82;101359.22;1650115;86;21046;-72
2022/05/06 11:43:08;;;;;;;5.75;2.00;;;;;;;18.90;43.73;101359.94;1651641;86;21154;-72
2022/05/06 11:48:22;;;;;;;3.22;1.80;;;;;;;18.87;43.53;101356.29;1624692;87;21050;-72
2022/05/06 11:50:54;;;;;;;5.12;2.35;;;;;;;18.88;43.51;101355.27;1648271;86;21608;-72
2022/05/06 11:53:21;;;;;;;5.85;2.45;;;;;;;18.90;43.44;101357.23;1647525;85;21065;-72
2022/05/06 11:55:47;;;;;;;4.45;2.65;;;;;;;19.01;43.47;101347.20;1617800;87;21181;-72
2022/05/06 11:58:14;;;;;;;5.10;2.05;;;;;;;19.05;43.47;101334.95;1620813;87;21048;-72
2022/05/06 12:00:40;;;;;;;7.35;2.60;;;;;;;19.18;43.57;101330.94;1634918;86;21051;-72
2022/05/06 12:03:07;;;;;;;3.85;2.08;;;;;;;19.42;43.63;101326.34;1654531;86;21564;-72
2022/05/06 12:05:34;;;;;;;5.87;2.00;;;;;;;19.64;43.58;101323.47;1618263;87;21080;-72
2022/05/06 12:08:00;;;;;;;5.10;2.55;;;;;;;19.74;43.44;101326.59;1625804;87;21108;-72